createdAt,value
2023-04-15T00:01:32.953Z,55.10
2023-04-15T00:03:14.495Z,55.51
2023-04-15T00:04:56.029Z,55.68
2023-04-15T00:06:37.347Z,57.37
2023-04-15T00:08:18.671Z,56.88
2023-04-15T00:10:00.008Z,55.27
2023-04-15T00:11:41.310Z,54.87
2023-04-15T00:13:22.588Z,54.59
2023-04-15T00:15:03.936Z,53.23
2023-04-15T00:16:45.286Z,52.08
2023-04-15T00:18:26.576Z,53.02
2023-04-15T00:20:07.895Z,53.56
2023-04-15T00:21:49.198Z,54.26
2023-04-15T00:23:30.556Z,53.15
2023-04-15T00:25:11.903Z,53.48
2023-04-15T00:26:53.232Z,54.70
2023-04-15T00:28:34.498Z,53.44
2023-04-15T00:30:15.771Z,52.65
2023-04-15T00:31:57.082Z,51.94
2023-04-15T00:33:38.354Z,53.51
2023-04-15T00:35:19.667Z,54.35
2023-04-15T00:37:01.000Z,54.49
2023-04-15T00:38:42.307Z,52.97
2023-04-15T00:40:23.569Z,51.86
2023-04-15T00:42:04.867Z,51.18
2023-04-15T00:43:46.165Z,50.49
2023-04-15T00:45:27.454Z,49.99
2023-04-15T00:47:08.791Z,49.22
2023-04-15T00:48:50.075Z,49.98
2023-04-15T00:50:31.358Z,49.26
2023-04-15T00:52:12.686Z,49.92
2023-04-15T00:53:53.936Z,49.69
2023-04-15T00:55:35.220Z,50.48
2023-04-15T00:57:16.536Z,50.99
2023-04-15T00:58:57.887Z,51.79
2023-04-15T01:00:39.246Z,52.08
2023-04-15T01:02:20.590Z,52.97
2023-04-15T01:04:02.102Z,53.88
2023-04-15T01:05:43.552Z,54.72
2023-04-15T01:07:24.851Z,56.07
2023-04-15T01:09:06.108Z,57.33
2023-04-15T01:10:47.405Z,58.42
2023-04-15T01:12:28.706Z,59.25
2023-04-15T01:14:09.992Z,60.31
2023-04-15T01:15:51.338Z,61.13
2023-04-15T01:17:32.717Z,61.75
2023-04-15T01:19:14.026Z,61.82
2023-04-15T01:20:55.352Z,61.81
2023-04-15T01:22:36.619Z,61.84
2023-04-15T01:24:17.882Z,62.36
2023-04-15T01:25:59.241Z,62.75
2023-04-15T01:27:40.576Z,62.77
2023-04-15T01:29:21.849Z,62.17
2023-04-15T01:31:03.131Z,61.95
2023-04-15T01:32:44.455Z,61.58
2023-04-15T01:34:25.789Z,60.01
2023-04-15T01:36:07.096Z,59.39
2023-04-15T01:37:48.405Z,57.92
2023-04-15T01:39:29.702Z,57.04
2023-04-15T01:41:10.998Z,54.79
2023-04-15T01:42:52.311Z,54.10
2023-04-15T01:44:33.591Z,53.70
2023-04-15T01:46:14.895Z,55.03
2023-04-15T01:47:56.379Z,55.61
2023-04-15T01:49:37.688Z,54.72
2023-04-15T01:51:18.987Z,54.03
2023-04-15T01:53:00.273Z,52.91
2023-04-15T01:54:41.557Z,52.47
2023-04-15T01:56:22.860Z,52.29
2023-04-15T01:58:04.185Z,54.39
2023-04-15T01:59:45.536Z,54.34
2023-04-15T02:01:26.998Z,55.45
2023-04-15T02:03:08.424Z,54.93
2023-04-15T02:04:49.759Z,54.43
2023-04-15T02:06:31.030Z,53.32
2023-04-15T02:08:12.295Z,53.70
2023-04-15T02:09:53.581Z,53.65
2023-04-15T02:11:34.908Z,55.54
2023-04-15T02:13:16.217Z,57.26
2023-04-15T02:14:57.511Z,56.48
2023-04-15T02:16:38.890Z,56.45
2023-04-15T02:18:20.261Z,56.55
2023-04-15T02:20:01.552Z,54.88
2023-04-15T02:21:42.984Z,55.53
2023-04-15T02:23:24.259Z,53.69
2023-04-15T02:25:05.580Z,52.00
2023-04-15T02:26:46.892Z,52.27
2023-04-15T02:28:28.182Z,51.60
2023-04-15T02:30:09.521Z,52.45
2023-04-15T02:31:50.870Z,52.11
2023-04-15T02:33:32.266Z,52.55
2023-04-15T02:35:13.590Z,51.93
2023-04-15T02:36:54.952Z,52.85
2023-04-15T02:38:36.213Z,51.30
2023-04-15T02:40:17.548Z,52.01
2023-04-15T02:41:58.906Z,52.81
2023-04-15T02:43:40.186Z,54.20
2023-04-15T02:45:21.438Z,54.60
2023-04-15T02:47:02.712Z,53.77
2023-04-15T02:48:44.030Z,53.30
2023-04-15T02:50:25.310Z,52.50
2023-04-15T02:52:06.654Z,52.09
2023-04-15T02:53:47.999Z,52.12
2023-04-15T02:55:29.294Z,53.44
2023-04-15T02:57:10.602Z,53.33
2023-04-15T02:58:51.908Z,53.97
2023-04-15T03:00:33.164Z,53.13
2023-04-15T03:02:14.535Z,55.49
2023-04-15T03:03:56.078Z,56.02
2023-04-15T03:05:37.397Z,54.77
2023-04-15T03:07:18.662Z,54.70
2023-04-15T03:09:00.224Z,55.21
2023-04-15T03:10:41.650Z,55.07
2023-04-15T03:12:22.915Z,53.86
2023-04-15T03:14:04.244Z,53.05
2023-04-15T03:15:45.561Z,52.57
2023-04-15T03:17:26.895Z,52.16
2023-04-15T03:19:08.187Z,51.48
2023-04-15T03:20:49.537Z,51.42
2023-04-15T03:22:30.826Z,51.11
2023-04-15T03:24:12.128Z,50.24
2023-04-15T03:25:53.437Z,52.04
2023-04-15T03:27:34.718Z,51.72
2023-04-15T03:29:16.023Z,52.23
2023-04-15T03:30:57.421Z,52.36
2023-04-15T03:32:38.740Z,53.00
2023-04-15T03:34:20.130Z,52.41
2023-04-15T03:36:01.467Z,53.72
2023-04-15T03:37:42.738Z,54.39
2023-04-15T03:39:24.022Z,53.42
2023-04-15T03:41:05.319Z,53.38
2023-04-15T03:42:46.614Z,52.72
2023-04-15T03:44:27.921Z,52.78
2023-04-15T03:46:09.296Z,55.75
2023-04-15T03:47:50.634Z,57.08
2023-04-15T03:49:31.971Z,57.62
2023-04-15T03:51:13.253Z,55.31
2023-04-15T03:52:54.520Z,53.75
2023-04-15T03:54:35.827Z,53.72
2023-04-15T03:56:17.105Z,53.86
2023-04-15T03:57:58.391Z,52.87
2023-04-15T03:59:39.682Z,53.17
2023-04-15T04:01:20.987Z,53.34
2023-04-15T04:03:02.499Z,52.14
2023-04-15T04:04:43.913Z,52.87
2023-04-15T04:06:25.253Z,52.17
2023-04-15T04:08:06.572Z,51.12
2023-04-15T04:09:47.852Z,51.40
2023-04-15T04:11:29.108Z,50.77
2023-04-15T04:13:10.436Z,50.40
2023-04-15T04:14:51.772Z,51.66
2023-04-15T04:16:33.187Z,52.49
2023-04-15T04:18:14.557Z,52.76
2023-04-15T04:19:55.871Z,52.36
2023-04-15T04:21:37.185Z,52.56
2023-04-15T04:23:18.505Z,54.29
2023-04-15T04:24:59.795Z,55.10
2023-04-15T04:26:41.076Z,56.12
2023-04-15T04:28:22.341Z,56.79
2023-04-15T04:30:03.612Z,58.19
2023-04-15T04:31:44.950Z,57.75
2023-04-15T04:33:26.284Z,57.22
2023-04-15T04:35:07.584Z,54.95
2023-04-15T04:36:48.981Z,53.71
2023-04-15T04:38:30.244Z,54.83
2023-04-15T04:40:11.514Z,55.22
2023-04-15T04:41:52.872Z,57.20
2023-04-15T04:43:34.160Z,58.76
2023-04-15T04:45:15.502Z,58.77
2023-04-15T04:46:56.873Z,57.65
2023-04-15T04:48:38.204Z,56.98
2023-04-15T04:50:19.480Z,56.63
2023-04-15T04:52:00.815Z,56.87
2023-04-15T04:53:42.128Z,56.48
2023-04-15T04:55:23.421Z,56.53
2023-04-15T04:57:04.698Z,56.07
2023-04-15T04:58:46.012Z,54.93
2023-04-15T05:00:27.307Z,54.30
2023-04-15T05:02:08.694Z,54.07
2023-04-15T05:03:50.144Z,53.02
2023-04-15T05:05:31.496Z,54.05
2023-04-15T05:07:12.812Z,53.62
2023-04-15T05:08:54.114Z,54.70
2023-04-15T05:10:35.409Z,54.00
2023-04-15T05:12:16.734Z,55.94
2023-04-15T05:13:58.007Z,57.92
2023-04-15T05:15:39.325Z,56.39
2023-04-15T05:17:20.625Z,55.38
2023-04-15T05:19:02.111Z,56.22
2023-04-15T05:20:43.646Z,57.27
2023-04-15T05:22:24.938Z,58.30
2023-04-15T05:24:06.228Z,60.15
2023-04-15T05:25:47.513Z,59.21
2023-04-15T05:27:28.852Z,58.71
2023-04-15T05:29:10.123Z,58.01
2023-04-15T05:30:51.412Z,58.52
2023-04-15T05:32:32.764Z,56.59
2023-04-15T05:34:14.106Z,57.41
2023-04-15T05:35:55.394Z,61.53
2023-04-15T05:37:36.748Z,61.95
2023-04-15T05:39:18.036Z,62.00
2023-04-15T05:40:59.295Z,63.05
2023-04-15T05:42:40.608Z,61.69
2023-04-15T05:44:21.858Z,60.22
2023-04-15T05:46:03.209Z,58.39
2023-04-15T05:47:44.683Z,57.67
2023-04-15T05:49:26.032Z,56.62
2023-04-15T05:51:07.304Z,54.90
2023-04-15T05:52:48.621Z,54.12
2023-04-15T05:54:29.929Z,54.37
2023-04-15T05:56:11.232Z,53.52
2023-04-15T05:57:52.557Z,52.97
2023-04-15T05:59:33.871Z,54.74
2023-04-15T06:01:15.182Z,55.74
2023-04-15T06:02:56.555Z,56.13
2023-04-15T06:04:38.041Z,55.81
2023-04-15T06:06:19.425Z,54.69
2023-04-15T06:08:00.720Z,54.47
2023-04-15T06:09:42.002Z,53.52
2023-04-15T06:11:23.326Z,53.42
2023-04-15T06:13:04.599Z,54.38
2023-04-15T06:14:45.947Z,53.14
2023-04-15T06:16:27.265Z,52.82
2023-04-15T06:18:08.637Z,53.41
2023-04-15T06:19:50.027Z,53.33
2023-04-15T06:21:31.351Z,52.99
2023-04-15T06:23:12.673Z,51.33
2023-04-15T06:24:53.955Z,52.21
2023-04-15T06:26:35.257Z,52.96
2023-04-15T06:28:16.574Z,53.04
2023-04-15T06:29:58.044Z,53.99
2023-04-15T06:31:39.381Z,54.28
2023-04-15T06:33:20.724Z,54.54
2023-04-15T06:35:01.991Z,55.37
2023-04-15T06:36:43.453Z,56.13
2023-04-15T06:38:24.784Z,56.26
2023-04-15T06:40:06.076Z,54.37
2023-04-15T06:41:47.352Z,52.80
2023-04-15T06:43:28.633Z,53.35
2023-04-15T06:45:09.969Z,53.36
2023-04-15T06:46:51.254Z,53.51
2023-04-15T06:48:32.589Z,52.33
2023-04-15T06:50:13.911Z,51.57
2023-04-15T06:51:55.271Z,50.78
2023-04-15T06:53:36.556Z,49.65
2023-04-15T06:55:17.831Z,49.14
2023-04-15T06:56:59.105Z,48.86
2023-04-15T06:58:40.411Z,49.88
2023-04-15T07:00:21.707Z,48.93
2023-04-15T07:02:03.035Z,49.29
2023-04-15T07:03:44.980Z,49.49
2023-04-15T07:05:26.638Z,49.45
2023-04-15T07:07:07.962Z,50.57
2023-04-15T07:08:49.270Z,50.26
2023-04-15T07:10:30.571Z,49.94
2023-04-15T07:12:11.891Z,50.14
2023-04-15T07:13:53.223Z,50.02
2023-04-15T07:15:34.554Z,50.17
2023-04-15T07:17:15.867Z,49.46
2023-04-15T07:18:57.174Z,49.53
2023-04-15T07:20:38.504Z,49.43
2023-04-15T07:22:19.878Z,49.00
2023-04-15T07:24:01.162Z,48.21
2023-04-15T07:25:42.453Z,47.03
2023-04-15T07:27:23.732Z,47.04
2023-04-15T07:29:04.992Z,46.51
2023-04-15T07:30:46.365Z,46.19
2023-04-15T07:32:27.737Z,45.22
2023-04-15T07:34:09.072Z,44.78
2023-04-15T07:35:50.338Z,45.33
2023-04-15T07:37:31.632Z,44.91
2023-04-15T07:39:12.927Z,44.75
2023-04-15T07:40:54.232Z,44.06
2023-04-15T07:42:35.641Z,43.93
2023-04-15T07:44:16.963Z,43.60
2023-04-15T07:45:58.328Z,43.77
2023-04-15T07:47:39.676Z,44.70
2023-04-15T07:49:20.939Z,45.21
2023-04-15T07:51:02.248Z,44.62
2023-04-15T07:52:43.543Z,43.81
2023-04-15T07:54:24.835Z,43.51
2023-04-15T07:56:06.125Z,42.59
2023-04-15T07:57:47.462Z,42.13
2023-04-15T07:59:28.780Z,41.88
2023-04-15T08:01:10.071Z,41.25
2023-04-15T08:02:51.527Z,41.86
2023-04-15T08:04:33.019Z,42.54
2023-04-15T08:06:14.394Z,42.68
2023-04-15T08:07:55.824Z,43.44
2023-04-15T08:09:37.325Z,42.88
2023-04-15T08:11:18.712Z,42.27
2023-04-15T08:13:00.164Z,42.86
2023-04-15T08:14:41.439Z,45.00
2023-04-15T08:16:22.872Z,44.97
2023-04-15T08:18:04.457Z,43.68
2023-04-15T08:19:45.962Z,43.91
2023-04-15T08:21:27.239Z,43.70
2023-04-15T08:23:08.555Z,42.83
2023-04-15T08:24:49.867Z,42.90
2023-04-15T08:26:31.541Z,42.34
2023-04-15T08:28:13.056Z,42.43
2023-04-15T08:29:54.366Z,42.74
2023-04-15T08:31:35.648Z,41.98
2023-04-15T08:33:17.364Z,42.92
2023-04-15T08:34:58.868Z,43.97
2023-04-15T08:36:40.156Z,43.18
2023-04-15T08:38:21.455Z,42.71
2023-04-15T08:40:02.750Z,43.54
2023-04-15T08:41:44.038Z,44.17
2023-04-15T08:43:25.324Z,45.42
2023-04-15T08:45:06.670Z,45.85
2023-04-15T08:46:48.098Z,46.47
2023-04-15T08:48:29.484Z,46.64
2023-04-15T08:50:10.873Z,46.65
2023-04-15T08:51:52.179Z,47.17
2023-04-15T08:53:33.477Z,47.22
2023-04-15T08:55:14.770Z,50.99
2023-04-15T08:56:56.098Z,53.85
2023-04-15T08:58:37.476Z,55.86
2023-04-15T09:00:18.777Z,56.61
2023-04-15T09:02:00.200Z,57.95
2023-04-15T09:03:41.619Z,59.42
2023-04-15T09:05:22.981Z,59.76
2023-04-15T09:07:04.299Z,59.91
2023-04-15T09:08:45.623Z,62.33
2023-04-15T09:10:26.927Z,60.19
2023-04-15T09:12:08.435Z,60.16
2023-04-15T09:13:49.755Z,60.49
2023-04-15T09:15:31.049Z,59.80
2023-04-15T09:17:12.360Z,58.86
2023-04-15T09:18:53.692Z,58.15
2023-04-15T09:20:35.040Z,58.74
2023-04-15T09:22:16.364Z,58.28
2023-04-15T09:23:57.680Z,57.98
2023-04-15T09:25:38.983Z,57.00
2023-04-15T09:27:20.257Z,56.74
2023-04-15T09:29:01.572Z,57.41
2023-04-15T09:30:42.880Z,57.82
2023-04-15T09:32:24.217Z,59.48
2023-04-15T09:34:05.539Z,58.82
2023-04-15T09:35:46.866Z,58.61
2023-04-15T09:37:32.406Z,58.71
2023-04-15T09:39:14.000Z,57.33
2023-04-15T09:40:55.317Z,56.78
2023-04-15T09:42:36.649Z,56.15
2023-04-15T09:44:17.913Z,56.62
2023-04-15T09:45:59.223Z,56.34
2023-04-15T09:47:40.652Z,56.22
2023-04-15T09:49:21.999Z,56.85
2023-04-15T09:51:03.295Z,55.90
2023-04-15T09:52:44.610Z,55.55
2023-04-15T09:54:25.940Z,54.93
2023-04-15T09:56:07.247Z,54.83
2023-04-15T09:57:48.619Z,54.38
2023-04-15T09:59:30.012Z,53.60
2023-04-15T10:01:11.332Z,53.10
2023-04-15T10:02:52.871Z,53.13
2023-04-15T10:04:34.337Z,52.53
2023-04-15T10:06:15.636Z,52.46
2023-04-15T10:07:56.964Z,53.07
2023-04-15T10:09:38.270Z,53.47
2023-04-15T10:11:19.553Z,54.69
2023-04-15T10:13:00.872Z,55.34
2023-04-15T10:14:42.133Z,55.07
2023-04-15T10:16:23.468Z,55.30
2023-04-15T10:18:04.942Z,54.90
2023-04-15T10:19:46.279Z,54.06
2023-04-15T10:21:27.540Z,54.06
2023-04-15T10:23:10.984Z,52.78
2023-04-15T10:24:53.480Z,52.59
2023-04-15T10:26:34.780Z,52.07
2023-04-15T10:28:16.088Z,53.37
2023-04-15T10:29:57.421Z,52.61
2023-04-15T10:31:38.719Z,52.81
2023-04-15T10:33:20.041Z,52.60
2023-04-15T10:35:01.353Z,52.41
2023-04-15T10:36:42.636Z,52.92
2023-04-15T10:38:23.924Z,53.98
2023-04-15T10:40:05.213Z,53.18
2023-04-15T10:41:46.482Z,53.50
2023-04-15T10:43:27.762Z,53.66
2023-04-15T10:45:09.054Z,52.63
2023-04-15T10:46:50.465Z,52.02
2023-04-15T10:48:31.808Z,51.94
2023-04-15T10:50:13.127Z,51.21
2023-04-15T10:51:54.456Z,50.97
2023-04-15T10:53:35.716Z,49.56
2023-04-15T10:55:16.999Z,48.98
2023-04-15T10:56:58.293Z,48.81
2023-04-15T10:58:39.569Z,48.52
2023-04-15T11:00:20.858Z,49.36
2023-04-15T11:02:02.250Z,50.21
2023-04-15T11:03:43.875Z,50.13
2023-04-15T11:05:25.420Z,50.41
2023-04-15T11:07:06.715Z,50.61
2023-04-15T11:08:48.122Z,50.77
2023-04-15T11:10:29.459Z,51.18
2023-04-15T11:12:10.788Z,50.68
2023-04-15T11:13:52.111Z,51.45
2023-04-15T11:15:33.407Z,51.88
2023-04-15T11:17:14.665Z,50.68
2023-04-15T11:18:56.007Z,49.87
2023-04-15T11:20:37.349Z,50.43
2023-04-15T11:22:18.636Z,50.81
2023-04-15T11:24:00.771Z,51.51
2023-04-15T11:25:43.913Z,52.30
2023-04-15T11:27:25.479Z,50.92
2023-04-15T11:29:06.778Z,50.51
2023-04-15T11:30:48.061Z,51.76
2023-04-15T11:32:29.435Z,52.64
2023-04-15T11:34:10.817Z,50.76
2023-04-15T11:35:52.211Z,52.30
2023-04-15T11:37:33.495Z,52.17
2023-04-15T11:39:14.811Z,51.79
2023-04-15T11:40:56.119Z,52.60
2023-04-15T11:42:48.724Z,51.58
2023-04-15T11:44:31.121Z,51.32
2023-04-15T11:46:12.466Z,51.48
2023-04-15T11:47:53.767Z,51.68
2023-04-15T11:49:35.062Z,53.77
2023-04-15T11:51:16.415Z,53.84
2023-04-15T11:52:57.685Z,54.00
2023-04-15T11:54:38.999Z,55.02
2023-04-15T11:56:20.291Z,56.20
2023-04-15T11:58:01.581Z,55.21
2023-04-15T11:59:45.520Z,55.17
2023-04-15T12:01:27.396Z,55.67
2023-04-15T12:03:08.815Z,55.94
2023-04-15T12:04:50.372Z,58.50
2023-04-15T12:06:31.697Z,57.83
2023-04-15T12:08:12.982Z,56.87
2023-04-15T12:09:54.254Z,56.63
2023-04-15T12:11:35.555Z,57.43
2023-04-15T12:13:16.865Z,57.46
2023-04-15T12:14:58.164Z,57.11
2023-04-15T12:16:48.015Z,57.18
2023-04-15T12:18:30.959Z,56.36
2023-04-15T12:20:13.369Z,55.87
2023-04-15T12:21:54.662Z,57.24
2023-04-15T12:23:35.935Z,56.84
2023-04-15T12:25:17.201Z,55.98
2023-04-15T12:26:58.579Z,55.79
2023-04-15T12:28:39.836Z,56.76
2023-04-15T12:30:21.231Z,55.10
2023-04-15T12:32:02.531Z,55.41
2023-04-15T12:33:43.907Z,55.96
2023-04-15T12:35:25.202Z,56.92
2023-04-15T12:37:06.512Z,55.94
2023-04-15T12:38:47.832Z,57.34
2023-04-15T12:40:29.155Z,59.97
2023-04-15T12:42:10.467Z,60.85
2023-04-15T12:43:51.740Z,60.71
2023-04-15T12:45:32.988Z,60.28
2023-04-15T12:47:14.324Z,61.89
2023-04-15T12:48:55.614Z,61.40
2023-04-15T12:50:36.889Z,62.82
2023-04-15T12:52:18.218Z,62.05
2023-04-15T12:53:59.512Z,62.30
2023-04-15T12:55:40.819Z,62.55
2023-04-15T12:57:22.154Z,62.42
2023-04-15T12:59:03.449Z,59.75
2023-04-15T13:00:44.770Z,59.89
2023-04-15T13:02:26.227Z,58.85
2023-04-15T13:04:07.944Z,58.92
2023-04-15T13:05:49.679Z,59.62
2023-04-15T13:07:31.059Z,59.31
2023-04-15T13:09:12.437Z,58.78
2023-04-15T13:10:53.759Z,59.23
2023-04-15T13:12:35.038Z,57.50
2023-04-15T13:14:16.323Z,57.99
2023-04-15T13:15:57.670Z,56.21
2023-04-15T13:17:39.013Z,58.06
2023-04-15T13:19:20.330Z,58.09
2023-04-15T13:21:02.219Z,59.39
2023-04-15T13:22:44.577Z,58.58
2023-04-15T13:24:25.892Z,59.48
2023-04-15T13:26:07.192Z,58.32
2023-04-15T13:27:48.476Z,58.36
2023-04-15T13:29:29.728Z,58.17
2023-04-15T13:31:11.071Z,58.12
2023-04-15T13:32:52.428Z,56.43
2023-04-15T13:34:33.743Z,57.10
2023-04-15T13:36:15.020Z,56.84
2023-04-15T13:37:56.308Z,56.02
2023-04-15T13:39:37.600Z,55.87
2023-04-15T13:41:18.940Z,55.99
2023-04-15T13:43:00.272Z,55.35
2023-04-15T13:44:41.559Z,54.97
2023-04-15T13:46:22.921Z,54.23
2023-04-15T13:48:04.277Z,53.23
2023-04-15T13:49:45.542Z,53.82
2023-04-15T13:51:26.816Z,52.26
2023-04-15T13:53:08.226Z,50.78
2023-04-15T13:54:49.555Z,50.55
2023-04-15T13:56:50.836Z,49.16
2023-04-15T13:58:32.122Z,49.56
2023-04-15T14:00:13.427Z,48.71
2023-04-15T14:01:54.828Z,47.67
2023-04-15T14:03:36.757Z,48.43
2023-04-15T14:05:18.431Z,47.81
2023-04-15T14:06:59.747Z,48.55
2023-04-15T14:08:41.074Z,47.97
2023-04-15T14:10:22.377Z,48.19
2023-04-15T14:12:03.643Z,48.85
2023-04-15T14:13:44.924Z,49.78
2023-04-15T14:15:26.253Z,50.62
2023-04-15T14:17:07.550Z,49.72
2023-04-15T14:18:48.870Z,51.67
2023-04-15T14:20:30.169Z,49.92
2023-04-15T14:22:11.444Z,49.11
2023-04-15T14:23:52.709Z,50.26
2023-04-15T14:25:34.368Z,48.93
2023-04-15T14:27:15.789Z,48.17
2023-04-15T14:28:57.110Z,47.75
2023-04-15T14:30:38.456Z,49.92
2023-04-15T14:32:19.876Z,51.19
2023-04-15T14:34:01.234Z,51.52
2023-04-15T14:35:42.543Z,53.67
2023-04-15T14:37:23.850Z,52.30
2023-04-15T14:39:05.707Z,53.74
2023-04-15T14:40:47.301Z,51.95
2023-04-15T14:42:28.615Z,51.00
2023-04-15T14:44:10.319Z,53.62
2023-04-15T14:45:51.675Z,54.37
2023-04-15T14:47:33.022Z,54.72
2023-04-15T14:49:14.368Z,54.39
2023-04-15T14:50:55.691Z,53.04
2023-04-15T14:52:36.978Z,52.49
2023-04-15T14:54:18.738Z,52.41
2023-04-15T14:56:00.703Z,52.13
2023-04-15T14:57:41.962Z,51.39
2023-04-15T14:59:23.260Z,50.80
2023-04-15T15:01:04.570Z,49.57
2023-04-15T15:02:46.054Z,50.18
2023-04-15T15:04:27.524Z,49.89
2023-04-15T15:06:08.964Z,50.29
2023-04-15T15:07:50.237Z,52.03
2023-04-15T15:09:32.826Z,52.28
2023-04-15T15:11:15.205Z,51.65
2023-04-15T15:12:56.546Z,51.26
2023-04-15T15:14:37.836Z,52.09
2023-04-15T15:16:19.173Z,53.09
2023-04-15T15:18:00.618Z,51.59
2023-04-15T15:19:41.911Z,53.55
2023-04-15T15:21:23.244Z,54.08
2023-04-15T15:23:04.532Z,54.77
2023-04-15T15:24:45.800Z,53.68
2023-04-15T15:26:27.061Z,55.05
2023-04-15T15:28:08.385Z,56.10
2023-04-15T15:29:49.674Z,56.71
2023-04-15T15:31:31.039Z,55.73
2023-04-15T15:33:12.388Z,54.32
2023-04-15T15:34:53.733Z,53.88
2023-04-15T15:36:34.993Z,53.96
2023-04-15T15:38:16.292Z,55.14
2023-04-15T15:39:57.571Z,55.02
2023-04-15T15:41:38.872Z,54.47
2023-04-15T15:43:20.176Z,54.82
2023-04-15T15:45:01.453Z,54.80
2023-04-15T15:46:43.062Z,53.34
2023-04-15T15:48:24.430Z,53.31
2023-04-15T15:50:06.392Z,53.31
2023-04-15T15:51:47.831Z,52.99
2023-04-15T15:53:29.151Z,53.94
2023-04-15T15:55:10.488Z,53.71
2023-04-15T15:56:51.844Z,52.92
2023-04-15T15:58:33.144Z,52.75
2023-04-15T16:00:14.487Z,51.77
2023-04-15T16:01:55.908Z,52.25
2023-04-15T16:03:37.532Z,51.27
2023-04-15T16:05:19.063Z,51.40
2023-04-15T16:07:00.402Z,51.78
2023-04-15T16:08:41.709Z,50.94
2023-04-15T16:10:23.254Z,50.53
2023-04-15T16:12:04.890Z,50.73
2023-04-15T16:13:46.183Z,51.71
2023-04-15T16:15:27.494Z,51.55
2023-04-15T16:17:08.793Z,51.61
2023-04-15T16:18:50.148Z,51.32
2023-04-15T16:20:31.431Z,53.23
2023-04-15T16:22:12.742Z,54.25
2023-04-15T16:23:53.992Z,53.74
2023-04-15T16:25:35.301Z,54.35
2023-04-15T16:27:16.602Z,54.53
2023-04-15T16:28:57.912Z,55.25
2023-04-15T16:30:39.248Z,54.91
2023-04-15T16:32:20.648Z,57.08
2023-04-15T16:34:02.003Z,56.38
2023-04-15T16:35:43.286Z,55.69
2023-04-15T16:37:24.569Z,56.12
2023-04-15T16:39:06.100Z,56.44
2023-04-15T16:40:47.668Z,57.66
2023-04-15T16:42:28.973Z,58.23
2023-04-15T16:44:10.288Z,58.82
2023-04-15T16:45:51.793Z,58.49
2023-04-15T16:47:33.201Z,58.07
2023-04-15T16:49:14.500Z,56.99
2023-04-15T16:50:55.793Z,56.61
2023-04-15T16:52:37.070Z,56.22
2023-04-15T16:54:18.365Z,56.19
2023-04-15T16:55:59.671Z,55.24
2023-04-15T16:58:01.573Z,54.95
2023-04-15T16:59:42.224Z,55.16
2023-04-15T17:01:23.554Z,56.44
2023-04-15T17:03:04.995Z,56.63
2023-04-15T17:04:46.368Z,56.64
2023-04-15T17:06:27.680Z,56.73
2023-04-15T17:08:09.002Z,56.40
2023-04-15T17:09:50.300Z,56.94
2023-04-15T17:11:31.586Z,56.75
2023-04-15T17:13:12.874Z,56.73
2023-04-15T17:14:54.154Z,56.05
2023-04-15T17:16:35.462Z,55.08
2023-04-15T17:18:16.726Z,55.32
2023-04-15T17:19:58.010Z,55.05
2023-04-15T17:21:39.343Z,55.83
2023-04-15T17:23:20.619Z,56.66
2023-04-15T17:25:01.913Z,55.80
2023-04-15T17:26:43.223Z,55.83
2023-04-15T17:28:24.515Z,55.87
2023-04-15T17:30:05.804Z,55.52
2023-04-15T17:31:47.140Z,54.77
2023-04-15T17:34:00.212Z,56.76
2023-04-15T17:35:29.680Z,58.64
2023-04-15T17:37:10.999Z,60.24
2023-04-15T17:38:52.273Z,60.22
2023-04-15T17:40:33.573Z,58.56
2023-04-15T17:42:14.865Z,58.33
2023-04-15T17:43:56.164Z,57.91
2023-04-15T17:45:37.479Z,57.26
2023-04-15T17:47:19.021Z,57.61
2023-04-15T17:49:00.608Z,57.82
2023-04-15T17:50:41.932Z,57.38
2023-04-15T17:52:23.292Z,57.82
2023-04-15T17:54:04.718Z,57.98
2023-04-15T17:55:46.185Z,58.69
2023-04-15T17:57:27.503Z,58.49
2023-04-15T17:59:08.981Z,58.92
2023-04-15T18:00:50.321Z,59.32
2023-04-15T18:02:32.757Z,59.03
2023-04-15T18:04:15.994Z,60.24
2023-04-15T18:05:57.341Z,59.43
2023-04-15T18:07:38.923Z,59.12
2023-04-15T18:09:20.448Z,59.49
2023-04-15T18:11:01.741Z,59.04
2023-04-15T18:12:43.044Z,58.79
2023-04-15T18:14:33.554Z,59.65
2023-04-15T18:16:16.176Z,60.34
2023-04-15T18:17:57.487Z,60.93
2023-04-15T18:19:38.796Z,60.61
2023-04-15T18:21:20.093Z,60.67
2023-04-15T18:23:01.447Z,60.93
2023-04-15T18:24:42.853Z,61.28
2023-04-15T18:26:24.140Z,62.04
2023-04-15T18:28:05.435Z,63.03
2023-04-15T18:29:46.756Z,62.10
2023-04-15T18:31:28.065Z,62.54
2023-04-15T18:33:09.400Z,61.87
2023-04-15T18:34:50.709Z,62.62
2023-04-15T18:36:31.988Z,62.36
2023-04-15T18:38:13.247Z,60.80
2023-04-15T18:39:54.551Z,61.79
2023-04-15T18:41:35.839Z,61.71
2023-04-15T18:43:17.136Z,61.56
2023-04-15T18:44:58.437Z,60.95
2023-04-15T18:46:39.718Z,61.30
2023-04-15T18:48:21.028Z,61.37
2023-04-15T18:50:02.487Z,62.52
2023-04-15T18:51:44.008Z,62.57
2023-04-15T18:53:25.381Z,62.73
2023-04-15T18:55:06.686Z,63.16
2023-04-15T18:56:48.022Z,61.79
2023-04-15T18:58:29.331Z,62.02
2023-04-15T19:00:30.633Z,63.08
2023-04-15T19:02:12.056Z,62.05
2023-04-15T19:03:53.510Z,62.71
2023-04-15T19:05:34.814Z,62.13
2023-04-15T19:07:16.121Z,62.98
2023-04-15T19:08:57.403Z,62.74
2023-04-15T19:10:38.685Z,64.16
2023-04-15T19:12:19.966Z,63.45
2023-04-15T19:14:01.251Z,64.41
2023-04-15T19:15:42.565Z,64.06
2023-04-15T19:17:23.901Z,62.83
2023-04-15T19:19:05.497Z,62.49
2023-04-15T19:20:46.878Z,62.46
2023-04-15T19:22:28.183Z,63.22
2023-04-15T19:24:09.519Z,62.79
2023-04-15T19:25:50.904Z,62.14
2023-04-15T19:27:32.223Z,62.67
2023-04-15T19:29:13.551Z,62.79
2023-04-15T19:30:54.957Z,61.96
2023-04-15T19:32:36.485Z,62.99
2023-04-15T19:34:17.818Z,62.30
2023-04-15T19:35:59.110Z,61.42
2023-04-15T19:37:40.378Z,61.20
2023-04-15T19:39:21.698Z,61.26
2023-04-15T19:41:03.024Z,60.44
2023-04-15T19:42:44.314Z,59.87
2023-04-15T19:44:25.630Z,59.80
2023-04-15T19:46:07.020Z,59.67
2023-04-15T19:47:48.392Z,59.69
2023-04-15T19:49:29.716Z,58.99
2023-04-15T19:51:11.029Z,58.51
2023-04-15T19:52:52.359Z,58.02
2023-04-15T19:54:33.688Z,57.61
2023-04-15T19:56:15.021Z,58.05
2023-04-15T19:57:56.334Z,57.89
2023-04-15T19:59:37.645Z,57.77
2023-04-15T20:01:19.029Z,58.05
2023-04-15T20:03:00.509Z,57.11
2023-04-15T20:04:42.029Z,57.13
2023-04-15T20:06:23.736Z,56.31
2023-04-15T20:08:05.075Z,56.60
2023-04-15T20:09:46.338Z,56.32
2023-04-15T20:11:27.640Z,55.36
2023-04-15T20:13:28.896Z,55.79
2023-04-15T20:15:10.198Z,55.92
2023-04-15T20:16:51.516Z,56.81
2023-04-15T20:18:32.826Z,57.89
2023-04-15T20:20:14.408Z,58.37
2023-04-15T20:21:55.734Z,58.79
2023-04-15T20:23:37.020Z,57.31
2023-04-15T20:25:18.329Z,56.72
2023-04-15T20:26:59.651Z,58.25
2023-04-15T20:28:40.927Z,58.15
2023-04-15T20:30:22.236Z,59.30
2023-04-15T20:32:04.480Z,57.94
2023-04-15T20:33:45.789Z,57.76
2023-04-15T20:35:27.285Z,57.15
2023-04-15T20:37:08.605Z,56.81
2023-04-15T20:38:49.866Z,59.06
2023-04-15T20:40:31.172Z,59.16
2023-04-15T20:42:12.481Z,58.65
2023-04-15T20:43:53.787Z,57.68
2023-04-15T20:45:35.075Z,57.77
2023-04-15T20:47:16.402Z,56.53
2023-04-15T20:48:57.757Z,56.71
2023-04-15T20:50:39.041Z,57.08
2023-04-15T20:52:20.314Z,56.88
2023-04-15T20:54:01.613Z,57.48
2023-04-15T20:55:42.879Z,57.24
2023-04-15T20:57:24.202Z,57.28
2023-04-15T20:59:05.686Z,59.37
2023-04-15T21:00:47.233Z,59.96
2023-04-15T21:02:28.695Z,60.63
2023-04-15T21:04:10.107Z,59.96
2023-04-15T21:05:51.400Z,60.25
2023-04-15T21:07:32.725Z,59.46
2023-04-15T21:09:14.018Z,57.93
2023-04-15T21:10:55.336Z,57.29
2023-04-15T21:12:36.634Z,56.83
2023-04-15T21:14:17.923Z,56.10
2023-04-15T21:15:59.271Z,55.16
2023-04-15T21:17:40.650Z,55.18
2023-04-15T21:19:21.944Z,54.72
2023-04-15T21:21:03.214Z,54.44
2023-04-15T21:22:44.519Z,53.13
2023-04-15T21:24:25.812Z,52.48
2023-04-15T21:26:07.108Z,51.60
2023-04-15T21:27:48.419Z,51.71
2023-04-15T21:29:29.745Z,52.94
2023-04-15T21:31:11.025Z,54.20
2023-04-15T21:32:52.364Z,56.82
2023-04-15T21:34:33.727Z,56.13
2023-04-15T21:36:15.018Z,54.51
2023-04-15T21:37:56.330Z,54.07
2023-04-15T21:39:37.602Z,53.44
2023-04-15T21:41:18.908Z,52.76
2023-04-15T21:43:00.282Z,52.51
2023-04-15T21:44:41.594Z,53.01
2023-04-15T21:46:25.726Z,52.51
2023-04-15T21:48:14.358Z,53.87